createdAt,value
2019-06-26T00:00:16.812Z,11.20
2019-06-26T00:02:44.985Z,11.20
2019-06-26T00:05:13.488Z,11.50
2019-06-26T00:07:41.943Z,12.13
2019-06-26T00:10:10.350Z,9.90
2019-06-26T00:12:38.856Z,10.37
2019-06-26T00:15:07.947Z,13.70
2019-06-26T00:17:36.452Z,15.73
2019-06-26T00:20:08.387Z,9.33
2019-06-26T00:22:36.821Z,11.03
2019-06-26T00:25:06.486Z,10.43
2019-06-26T00:27:34.983Z,14.30
2019-06-26T00:30:05.360Z,10.47
2019-06-26T00:32:33.993Z,12.27
2019-06-26T00:35:02.519Z,16.30
2019-06-26T00:37:31.026Z,14.83
2019-06-26T00:39:59.479Z,11.73
2019-06-26T00:42:27.648Z,14.35
2019-06-26T00:44:56.247Z,14.33
2019-06-26T00:47:24.751Z,14.40
2019-06-26T00:49:52.872Z,13.90
2019-06-26T00:52:21.400Z,13.23
2019-06-26T00:54:49.864Z,12.47
2019-06-26T00:57:18.378Z,13.13
2019-06-26T00:59:46.837Z,17.83
2019-06-26T01:02:15.311Z,14.93
2019-06-26T01:04:45.475Z,17.50
2019-06-26T01:07:13.931Z,18.00
2019-06-26T01:09:42.462Z,18.50
2019-06-26T01:12:10.596Z,18.37
2019-06-26T01:14:39.083Z,19.93
2019-06-26T01:17:07.592Z,19.70
2019-06-26T01:19:36.028Z,19.50
2019-06-26T01:22:04.547Z,22.43
2019-06-26T01:24:33.325Z,21.00
2019-06-26T01:27:02.003Z,23.03
2019-06-26T01:29:32.626Z,21.03
2019-06-26T01:32:00.607Z,21.57
2019-06-26T01:34:29.055Z,25.37
2019-06-26T01:36:57.507Z,26.33
2019-06-26T01:39:25.945Z,28.60
2019-06-26T01:41:54.133Z,29.50
2019-06-26T01:44:22.635Z,33.43
2019-06-26T01:46:51.091Z,32.90
2019-06-26T01:49:19.603Z,37.00
2019-06-26T01:51:48.054Z,32.60
2019-06-26T01:54:16.525Z,30.47
2019-06-26T01:56:45.030Z,33.97
2019-06-26T01:59:13.524Z,39.10
2019-06-26T02:01:41.987Z,31.87
2019-06-26T02:04:10.425Z,31.83
2019-06-26T02:06:38.876Z,34.10
2019-06-26T02:09:07.564Z,29.13
2019-06-26T02:11:36.023Z,31.43
2019-06-26T02:14:04.186Z,29.30
2019-06-26T02:16:32.615Z,31.83
2019-06-26T02:19:02.730Z,28.50
2019-06-26T02:21:30.845Z,30.00
2019-06-26T02:23:59.287Z,33.10
2019-06-26T02:26:27.411Z,31.77
2019-06-26T02:28:55.932Z,30.37
2019-06-26T02:31:24.086Z,32.63
2019-06-26T02:33:52.587Z,28.77
2019-06-26T02:36:21.189Z,32.43
2019-06-26T02:38:49.654Z,32.07
2019-06-26T02:41:17.747Z,27.47
2019-06-26T02:43:46.279Z,26.27
2019-06-26T02:46:14.380Z,35.20
2019-06-26T02:48:42.852Z,32.43
2019-06-26T02:51:11.276Z,28.00
2019-06-26T02:53:39.412Z,34.67
2019-06-26T02:56:07.904Z,28.27
2019-06-26T02:58:36.379Z,37.90
2019-06-26T03:01:04.479Z,30.73
2019-06-26T03:03:32.932Z,33.20
2019-06-26T03:06:01.397Z,37.63
2019-06-26T03:08:29.530Z,35.30
2019-06-26T03:10:57.959Z,33.33
2019-06-26T03:13:26.051Z,34.80
2019-06-26T03:15:54.185Z,33.07
2019-06-26T03:18:22.714Z,35.23
2019-06-26T03:20:54.227Z,31.40
2019-06-26T03:23:22.695Z,33.47
2019-06-26T03:25:51.128Z,36.17
2019-06-26T03:28:19.598Z,31.67
2019-06-26T03:30:48.278Z,32.87
2019-06-26T03:33:16.734Z,33.13
2019-06-26T03:35:44.873Z,35.10
2019-06-26T03:38:12.976Z,34.23
2019-06-26T03:40:41.440Z,31.60
2019-06-26T03:43:09.949Z,34.10
2019-06-26T03:45:38.412Z,35.37
2019-06-26T03:48:06.991Z,41.00
2019-06-26T03:50:35.555Z,35.33
2019-06-26T03:53:04.128Z,36.97
2019-06-26T03:55:32.804Z,37.20
2019-06-26T03:58:01.331Z,37.73
2019-06-26T04:00:38.667Z,35.07
2019-06-26T04:03:07.495Z,45.80
2019-06-26T04:05:35.792Z,36.83
2019-06-26T04:08:04.354Z,34.60
2019-06-26T04:10:33.136Z,32.40
2019-06-26T04:13:01.707Z,36.73
2019-06-26T04:15:41.464Z,36.53
2019-06-26T04:18:00.319Z,33.73
2019-06-26T04:20:28.783Z,33.67
2019-06-26T04:22:56.876Z,38.23
2019-06-26T04:25:25.409Z,31.87
2019-06-26T04:27:53.543Z,31.83
2019-06-26T04:30:21.665Z,32.07
2019-06-26T04:32:50.180Z,36.63
2019-06-26T04:35:18.430Z,33.17
2019-06-26T04:37:46.567Z,44.93
2019-06-26T04:40:15.484Z,40.13
2019-06-26T04:42:43.915Z,41.40
2019-06-26T04:45:13.297Z,31.97
2019-06-26T04:47:41.427Z,34.27
2019-06-26T04:50:10.506Z,30.83
2019-06-26T04:52:39.143Z,31.63
2019-06-26T04:55:08.030Z,32.20
2019-06-26T04:57:36.727Z,37.93
2019-06-26T05:00:10.356Z,40.67
2019-06-26T05:02:38.882Z,31.03
2019-06-26T05:05:07.682Z,31.27
2019-06-26T05:07:36.235Z,29.27
2019-06-26T05:10:06.107Z,33.70
2019-06-26T05:12:34.571Z,34.00
2019-06-26T05:15:03.439Z,33.30
2019-06-26T05:17:31.969Z,33.78
2019-06-26T05:20:00.400Z,28.92
2019-06-26T05:22:28.867Z,31.35
2019-06-26T05:24:56.976Z,32.70
2019-06-26T05:27:25.437Z,28.57
2019-06-26T05:29:54.595Z,25.30
2019-06-26T05:32:22.867Z,22.15
2019-06-26T05:34:51.539Z,21.37
2019-06-26T05:37:20.003Z,27.40
2019-06-26T05:39:49.165Z,22.87
2019-06-26T05:42:17.680Z,22.93
2019-06-26T05:44:45.821Z,22.45
2019-06-26T05:47:14.251Z,22.65
2019-06-26T05:49:42.715Z,26.82
2019-06-26T05:52:11.152Z,23.45
2019-06-26T05:54:39.619Z,22.82
2019-06-26T05:57:07.785Z,21.60
2019-06-26T05:59:36.725Z,23.52
2019-06-26T06:02:04.999Z,24.90
2019-06-26T06:04:33.500Z,21.52
2019-06-26T06:07:01.723Z,17.70
2019-06-26T06:09:30.183Z,24.82
2019-06-26T06:11:58.323Z,20.40
2019-06-26T06:14:26.826Z,23.50
2019-06-26T06:16:55.276Z,19.98
2019-06-26T06:19:23.732Z,23.65
2019-06-26T06:21:51.904Z,19.80
2019-06-26T06:24:20.351Z,21.12
2019-06-26T06:26:48.809Z,21.12
2019-06-26T06:29:17.377Z,16.30
2019-06-26T06:31:45.926Z,18.42
2019-06-26T06:34:14.400Z,19.62
2019-06-26T06:36:42.863Z,21.25
2019-06-26T06:39:11.321Z,19.70
2019-06-26T06:41:42.534Z,16.23
2019-06-26T06:44:09.711Z,19.30
2019-06-26T06:46:37.819Z,21.80
2019-06-26T06:49:06.363Z,18.98
2019-06-26T06:51:34.467Z,18.37
2019-06-26T06:54:02.893Z,16.67
2019-06-26T06:56:31.040Z,24.23
2019-06-26T06:58:59.475Z,19.15
2019-06-26T07:01:27.923Z,21.05
2019-06-26T07:03:56.362Z,16.25
2019-06-26T07:06:24.508Z,23.30
2019-06-26T07:08:53.016Z,17.40
2019-06-26T07:11:21.285Z,19.30
2019-06-26T07:13:49.395Z,19.48
2019-06-26T07:16:17.923Z,19.80
2019-06-26T07:18:46.358Z,19.82
2019-06-26T07:21:14.820Z,22.98
2019-06-26T07:23:43.259Z,18.57
2019-06-26T07:26:13.414Z,19.70
2019-06-26T07:28:41.711Z,15.58
2019-06-26T07:31:10.240Z,19.48
2019-06-26T07:33:38.355Z,17.17
2019-06-26T07:36:06.879Z,17.05
2019-06-26T07:38:35.335Z,15.13
2019-06-26T07:41:03.975Z,19.25
2019-06-26T07:43:32.086Z,22.15
2019-06-26T07:46:00.212Z,19.35
2019-06-26T07:48:28.669Z,14.20
2019-06-26T07:50:57.194Z,17.05
2019-06-26T07:53:25.630Z,21.15
2019-06-26T07:55:53.736Z,18.10
2019-06-26T07:58:22.197Z,17.95
2019-06-26T08:00:50.790Z,22.37
2019-06-26T08:03:18.953Z,22.35
2019-06-26T08:05:47.048Z,14.75
2019-06-26T08:08:15.629Z,23.22
2019-06-26T08:10:44.393Z,17.95
2019-06-26T08:13:12.844Z,20.50
2019-06-26T08:15:41.315Z,23.32
2019-06-26T08:18:09.434Z,14.50
2019-06-26T08:20:51.877Z,20.62
2019-06-26T08:23:08.387Z,16.65
2019-06-26T08:25:36.947Z,14.33
2019-06-26T08:28:05.413Z,13.05
2019-06-26T08:30:33.839Z,12.78
2019-06-26T08:33:02.343Z,15.68
2019-06-26T08:35:30.912Z,16.60
2019-06-26T08:38:09.870Z,13.40
2019-06-26T08:40:29.254Z,12.58
2019-06-26T08:42:57.743Z,18.42
2019-06-26T08:45:26.175Z,14.38
2019-06-26T08:47:54.461Z,13.00
2019-06-26T08:50:23.097Z,15.23
2019-06-26T08:52:51.712Z,17.20
2019-06-26T08:55:20.276Z,16.97
2019-06-26T08:57:48.415Z,15.88
2019-06-26T09:00:17.019Z,12.35
2019-06-26T09:02:45.488Z,15.98
2019-06-26T09:05:14.044Z,17.82
2019-06-26T09:07:42.206Z,18.60
2019-06-26T09:10:11.420Z,16.67
2019-06-26T09:12:39.980Z,16.57
2019-06-26T09:15:29.415Z,16.70
2019-06-26T09:17:57.559Z,12.82
2019-06-26T09:20:38.127Z,16.90
2019-06-26T09:23:06.893Z,13.60
2019-06-26T09:25:35.577Z,15.60
2019-06-26T09:28:05.367Z,12.37
2019-06-26T09:30:34.106Z,13.60
2019-06-26T09:33:02.545Z,11.20
2019-06-26T09:35:30.753Z,13.78
2019-06-26T09:37:58.875Z,13.30
2019-06-26T09:40:27.415Z,13.20
2019-06-26T09:42:55.716Z,11.68
2019-06-26T09:45:24.320Z,13.43
2019-06-26T09:47:52.830Z,14.20
2019-06-26T09:50:21.540Z,15.55
2019-06-26T09:52:49.661Z,13.78
2019-06-26T09:55:18.616Z,14.20
2019-06-26T09:57:47.059Z,12.13
2019-06-26T10:00:18.556Z,13.00
2019-06-26T10:02:46.997Z,14.45
2019-06-26T10:05:16.796Z,13.48
2019-06-26T10:07:44.902Z,12.70
2019-06-26T10:10:14.691Z,12.50
2019-06-26T10:12:42.883Z,14.25
2019-06-26T10:15:11.910Z,14.38
2019-06-26T10:17:40.347Z,11.45
2019-06-26T10:20:09.366Z,11.45
2019-06-26T10:22:37.864Z,11.57
2019-06-26T10:25:11.272Z,16.17
2019-06-26T10:27:38.647Z,12.25
2019-06-26T10:30:08.088Z,10.55
2019-06-26T10:32:36.284Z,13.83
2019-06-26T10:35:06.164Z,10.13
2019-06-26T10:37:34.620Z,12.63
2019-06-26T10:40:03.287Z,10.60
2019-06-26T10:42:31.743Z,9.70
2019-06-26T10:45:00.286Z,12.70
2019-06-26T10:47:28.908Z,12.33
2019-06-26T10:49:57.336Z,10.75
2019-06-26T10:52:26.000Z,10.40
2019-06-26T10:54:54.455Z,10.40
2019-06-26T10:57:23.112Z,10.45
2019-06-26T10:59:55.531Z,10.60
2019-06-26T11:02:21.827Z,12.63
2019-06-26T11:04:49.989Z,9.95
2019-06-26T11:07:18.165Z,10.90
2019-06-26T11:09:46.613Z,10.82
2019-06-26T11:12:15.139Z,10.35
2019-06-26T11:14:43.624Z,11.28
2019-06-26T11:17:11.801Z,10.82
2019-06-26T11:19:44.298Z,10.82
2019-06-26T11:22:10.583Z,11.85
2019-06-26T11:24:39.113Z,15.05
2019-06-26T11:27:07.657Z,13.62
2019-06-26T11:29:35.761Z,15.00
2019-06-26T11:32:04.011Z,12.60
2019-06-26T11:34:32.302Z,15.25
2019-06-26T11:37:04.231Z,11.70
2019-06-26T11:39:30.967Z,12.10
2019-06-26T11:41:59.094Z,13.15
2019-06-26T11:44:27.304Z,13.70
2019-06-26T11:46:55.437Z,12.40
2019-06-26T11:49:23.907Z,12.07
2019-06-26T11:51:52.008Z,15.53
2019-06-26T11:54:20.541Z,13.03
2019-06-26T11:56:48.647Z,11.30
2019-06-26T11:59:17.132Z,11.08
2019-06-26T12:01:45.314Z,15.25
2019-06-26T12:04:13.869Z,12.73
2019-06-26T12:06:45.660Z,12.88
2019-06-26T12:09:12.680Z,16.15
2019-06-26T12:11:41.158Z,13.80
2019-06-26T12:14:09.624Z,15.72
2019-06-26T12:16:38.068Z,17.32
2019-06-26T12:19:06.542Z,14.95
2019-06-26T12:21:34.703Z,22.10
2019-06-26T12:24:03.259Z,16.75
2019-06-26T12:26:33.876Z,14.90
2019-06-26T12:29:02.412Z,15.85
2019-06-26T12:31:30.556Z,16.40
2019-06-26T12:33:58.671Z,19.35
2019-06-26T12:36:27.103Z,20.85
2019-06-26T12:38:55.247Z,19.85
2019-06-26T12:41:23.787Z,22.07
2019-06-26T12:43:51.962Z,19.32
2019-06-26T12:46:20.659Z,22.52
2019-06-26T12:48:49.168Z,24.18
2019-06-26T12:51:17.698Z,17.37
2019-06-26T12:53:45.814Z,18.77
2019-06-26T12:56:14.297Z,19.30
2019-06-26T12:58:42.740Z,19.40
2019-06-26T13:01:11.201Z,17.27
2019-06-26T13:03:39.320Z,18.92
2019-06-26T13:06:08.019Z,17.45
2019-06-26T13:08:36.259Z,17.07
2019-06-26T13:11:04.513Z,17.32
2019-06-26T13:13:33.131Z,22.40
2019-06-26T13:16:01.669Z,17.42
2019-06-26T13:18:30.173Z,17.27
2019-06-26T13:20:58.683Z,18.27
2019-06-26T13:23:27.272Z,20.50
2019-06-26T13:25:55.459Z,17.62
2019-06-26T13:28:23.935Z,21.35
2019-06-26T13:30:53.494Z,21.45
2019-06-26T13:33:22.198Z,19.15
2019-06-26T13:35:50.356Z,21.95
2019-06-26T13:38:18.577Z,20.25
2019-06-26T13:40:47.068Z,22.22
2019-06-26T13:43:16.392Z,20.48
2019-06-26T13:45:44.874Z,21.07
2019-06-26T13:48:13.317Z,17.05
2019-06-26T13:50:41.873Z,19.57
2019-06-26T13:53:09.966Z,24.90
2019-06-26T13:55:38.121Z,20.82
2019-06-26T13:58:06.633Z,17.00
2019-06-26T14:00:35.112Z,20.85
2019-06-26T14:03:03.654Z,23.27
2019-06-26T14:05:32.083Z,20.55
2019-06-26T14:08:00.535Z,21.05
2019-06-26T14:10:28.665Z,22.40
2019-06-26T14:12:56.799Z,22.00
2019-06-26T14:15:24.947Z,20.60
2019-06-26T14:17:53.129Z,19.37
2019-06-26T14:20:21.451Z,17.27
2019-06-26T14:22:49.990Z,20.35
2019-06-26T14:25:19.280Z,14.43
2019-06-26T14:27:47.724Z,16.57
2019-06-26T14:30:16.235Z,13.88
2019-06-26T14:32:44.759Z,15.48
2019-06-26T14:35:13.475Z,15.32
2019-06-26T14:37:41.702Z,13.80
2019-06-26T14:40:10.326Z,13.62
2019-06-26T14:42:38.944Z,13.48
2019-06-26T14:45:07.588Z,12.07
2019-06-26T14:47:36.454Z,12.93
2019-06-26T14:50:05.377Z,10.30
2019-06-26T14:52:35.110Z,10.70
2019-06-26T14:55:04.220Z,12.23
2019-06-26T14:57:32.747Z,8.30
2019-06-26T15:00:01.304Z,10.50
2019-06-26T15:02:31.957Z,11.43
2019-06-26T15:04:59.935Z,9.50
2019-06-26T15:07:28.475Z,7.30
2019-06-26T15:09:56.636Z,9.00
2019-06-26T15:12:25.070Z,8.20
2019-06-26T15:14:53.549Z,10.30
2019-06-26T15:17:21.986Z,8.25
2019-06-26T15:19:50.441Z,8.08
2019-06-26T15:22:18.883Z,7.95
2019-06-26T15:24:47.624Z,8.55
2019-06-26T15:27:16.046Z,7.67
2019-06-26T15:29:44.556Z,11.28
2019-06-26T15:32:13.014Z,10.23
2019-06-26T15:34:41.702Z,14.93
2019-06-26T15:37:10.235Z,15.78
2019-06-26T15:39:38.699Z,14.65
2019-06-26T15:42:07.148Z,14.00
2019-06-26T15:44:35.673Z,15.70
2019-06-26T15:47:04.204Z,16.27
2019-06-26T15:49:32.675Z,16.62
2019-06-26T15:52:14.069Z,17.17
2019-06-26T15:54:31.010Z,17.35
2019-06-26T15:56:59.103Z,15.32
2019-06-26T15:59:30.888Z,17.60
2019-06-26T16:01:57.735Z,15.95
2019-06-26T16:04:26.279Z,28.67
2019-06-26T16:06:54.774Z,20.30
2019-06-26T16:09:23.229Z,14.80
2019-06-26T16:11:51.343Z,16.12
2019-06-26T16:14:19.894Z,15.32
2019-06-26T16:16:49.777Z,13.62
2019-06-26T16:19:22.347Z,12.75
2019-06-26T16:21:50.479Z,14.73
2019-06-26T16:24:19.019Z,12.23
2019-06-26T16:26:47.768Z,11.55
2019-06-26T16:29:16.209Z,13.80
2019-06-26T16:31:44.737Z,14.75
2019-06-26T16:34:13.181Z,10.72
2019-06-26T16:36:41.646Z,12.05
2019-06-26T16:39:09.861Z,12.10
2019-06-26T16:41:38.323Z,15.08
2019-06-26T16:44:06.572Z,14.13
2019-06-26T16:46:35.176Z,13.28
2019-06-26T16:49:05.234Z,14.63
2019-06-26T16:51:33.831Z,12.47
2019-06-26T16:54:01.938Z,12.88
2019-06-26T16:56:30.407Z,11.08
2019-06-26T16:58:58.903Z,11.40
2019-06-26T17:01:27.037Z,10.43
2019-06-26T17:03:55.476Z,23.50
2019-06-26T17:06:23.946Z,15.03
2019-06-26T17:08:52.406Z,17.40
2019-06-26T17:11:21.108Z,13.95
2019-06-26T17:13:49.637Z,14.45
2019-06-26T17:16:17.779Z,12.40
2019-06-26T17:18:46.224Z,14.90
2019-06-26T17:21:14.992Z,20.48
2019-06-26T17:23:43.431Z,15.03
2019-06-26T17:26:11.959Z,16.50
2019-06-26T17:28:40.071Z,14.58
2019-06-26T17:31:08.561Z,15.72
2019-06-26T17:33:36.999Z,18.40
2019-06-26T17:36:05.163Z,19.87
2019-06-26T17:38:33.524Z,14.20
2019-06-26T17:41:02.129Z,17.05
2019-06-26T17:43:31.118Z,16.10
2019-06-26T17:45:59.619Z,13.75
2019-06-26T17:48:27.739Z,15.75
2019-06-26T17:50:56.164Z,15.08
2019-06-26T17:53:24.641Z,15.83
2019-06-26T17:55:52.752Z,11.63
2019-06-26T17:58:20.965Z,13.80
2019-06-26T18:00:49.090Z,19.40
2019-06-26T18:03:17.692Z,14.03
2019-06-26T18:05:46.159Z,14.83
2019-06-26T18:08:14.732Z,10.90
2019-06-26T18:10:43.210Z,12.47
2019-06-26T18:13:11.764Z,16.25
2019-06-26T18:15:40.235Z,11.93
2019-06-26T18:18:08.376Z,15.63
2019-06-26T18:20:36.485Z,12.80
2019-06-26T18:23:07.554Z,10.70
2019-06-26T18:25:34.440Z,11.40
2019-06-26T18:28:03.003Z,11.80
2019-06-26T18:30:31.199Z,12.23
2019-06-26T18:32:59.356Z,10.82
2019-06-26T18:35:27.884Z,10.03
2019-06-26T18:37:56.354Z,9.38
2019-06-26T18:40:24.787Z,11.18
2019-06-26T18:42:52.910Z,9.55
2019-06-26T18:45:21.349Z,11.12
2019-06-26T18:47:49.839Z,10.60
2019-06-26T18:50:18.221Z,14.18
2019-06-26T18:52:46.906Z,9.98
2019-06-26T18:55:15.796Z,11.18
2019-06-26T18:57:44.264Z,14.23
2019-06-26T19:00:12.547Z,11.70
2019-06-26T19:02:41.114Z,12.45
2019-06-26T19:05:09.428Z,13.53
2019-06-26T19:07:37.871Z,11.75
2019-06-26T19:10:08.072Z,12.37
2019-06-26T19:12:36.690Z,11.22
2019-06-26T19:15:05.097Z,14.47
2019-06-26T19:17:33.216Z,11.55
2019-06-26T19:20:01.643Z,12.30
2019-06-26T19:22:29.815Z,13.93
2019-06-26T19:24:58.356Z,12.82
2019-06-26T19:27:26.532Z,11.53
2019-06-26T19:29:55.046Z,16.67
2019-06-26T19:32:23.544Z,11.73
2019-06-26T19:34:51.755Z,13.68
2019-06-26T19:37:20.309Z,15.10
2019-06-26T19:39:48.780Z,12.23
2019-06-26T19:42:16.984Z,11.47
2019-06-26T19:44:45.107Z,14.10
2019-06-26T19:47:13.552Z,10.47
2019-06-26T19:49:42.007Z,12.93
2019-06-26T19:52:10.439Z,11.77
2019-06-26T19:54:38.989Z,11.50
2019-06-26T19:57:07.536Z,12.97
2019-06-26T19:59:36.015Z,13.93
2019-06-26T20:02:04.719Z,18.30
2019-06-26T20:04:33.252Z,11.50
2019-06-26T20:07:01.791Z,13.57
2019-06-26T20:09:30.349Z,13.10
2019-06-26T20:11:59.068Z,13.17
2019-06-26T20:14:27.674Z,14.47
2019-06-26T20:16:56.357Z,10.03
2019-06-26T20:19:24.915Z,10.77
2019-06-26T20:21:53.439Z,11.23
2019-06-26T20:24:21.876Z,11.80
2019-06-26T20:26:50.030Z,10.77
2019-06-26T20:29:18.461Z,9.30
2019-06-26T20:31:46.991Z,11.90
2019-06-26T20:34:15.423Z,11.43
2019-06-26T20:36:43.575Z,11.33
2019-06-26T20:39:11.696Z,10.93
2019-06-26T20:41:40.371Z,13.17
2019-06-26T20:44:08.783Z,12.43
2019-06-26T20:46:37.326Z,9.27
2019-06-26T20:49:05.427Z,10.43
2019-06-26T20:51:33.899Z,9.67
2019-06-26T20:54:02.357Z,9.87
2019-06-26T20:56:30.888Z,9.37
2019-06-26T20:58:59.065Z,9.43
2019-06-26T21:01:27.738Z,35.43
2019-06-26T21:03:56.394Z,8.27
2019-06-26T21:06:24.915Z,7.63
2019-06-26T21:08:53.454Z,9.60
2019-06-26T21:11:21.954Z,9.53
2019-06-26T21:13:50.617Z,9.63
2019-06-26T21:16:19.151Z,7.80
2019-06-26T21:18:47.694Z,8.80
2019-06-26T21:21:16.154Z,8.57
2019-06-26T21:23:44.591Z,5.80
2019-06-26T21:26:12.860Z,9.43
2019-06-26T21:28:41.340Z,7.93
2019-06-26T21:31:09.587Z,7.10
2019-06-26T21:33:38.572Z,8.13
2019-06-26T21:36:07.084Z,8.93
2019-06-26T21:38:35.608Z,10.53
2019-06-26T21:41:04.156Z,11.67
2019-06-26T21:43:32.619Z,7.47
2019-06-26T21:46:01.142Z,7.80
2019-06-26T21:48:29.687Z,7.97
2019-06-26T21:51:12.191Z,10.77
2019-06-26T21:53:40.375Z,8.40
2019-06-26T21:56:09.253Z,8.50
2019-06-26T21:58:37.567Z,10.00
2019-06-26T22:01:06.240Z,7.30
2019-06-26T22:03:34.753Z,7.20
2019-06-26T22:06:03.210Z,9.63
2019-06-26T22:08:31.352Z,7.00
2019-06-26T22:10:59.847Z,8.63
2019-06-26T22:13:28.608Z,7.87
2019-06-26T22:15:57.054Z,7.13
2019-06-26T22:18:25.168Z,9.57
2019-06-26T22:20:53.634Z,6.53
2019-06-26T22:23:22.080Z,7.60
2019-06-26T22:25:51.387Z,5.40
2019-06-26T22:28:19.852Z,5.83
2019-06-26T22:30:51.206Z,6.97
2019-06-26T22:33:19.678Z,8.00
2019-06-26T22:35:48.208Z,10.63
2019-06-26T22:38:16.696Z,7.13
2019-06-26T22:40:44.844Z,8.70
2019-06-26T22:43:13.283Z,7.83
2019-06-26T22:45:41.860Z,8.50
2019-06-26T22:48:09.988Z,6.10
2019-06-26T22:50:38.513Z,6.50
2019-06-26T22:53:07.016Z,6.07
2019-06-26T22:55:35.586Z,6.27
2019-06-26T22:58:04.100Z,6.23
2019-06-26T23:00:32.241Z,6.80
2019-06-26T23:03:00.681Z,7.97
2019-06-26T23:05:29.144Z,6.60
2019-06-26T23:07:57.564Z,11.67
2019-06-26T23:10:26.028Z,7.37
2019-06-26T23:12:54.124Z,7.97
2019-06-26T23:15:22.654Z,6.43
2019-06-26T23:17:51.140Z,7.90
2019-06-26T23:20:19.676Z,6.23
2019-06-26T23:22:48.203Z,9.17
2019-06-26T23:25:16.832Z,6.63
2019-06-26T23:27:45.357Z,9.27
2019-06-26T23:30:18.067Z,7.10
2019-06-26T23:32:46.637Z,10.97
2019-06-26T23:35:15.274Z,8.07
2019-06-26T23:37:43.773Z,6.83
2019-06-26T23:40:11.991Z,12.37
2019-06-26T23:42:40.429Z,9.90
2019-06-26T23:45:08.727Z,5.87
2019-06-26T23:47:37.156Z,7.57
2019-06-26T23:50:06.160Z,11.67
2019-06-26T23:52:34.592Z,9.80
2019-06-26T23:55:03.422Z,7.77
2019-06-26T23:57:31.543Z,9.30
2019-06-26T23:59:59.976Z,6.97
